1899 NOT_NAMED (1899196N19137)


IBTrACS version v04r00. Visit IBTrACS website for data access.
Please direct all questions to the IBTrACS Q and A forum

Storm track - Intensity - Wind Radii - Intensity Data - Source Data - All data

Summary Information

Storm ID 1899196N19137
Start Jul 14 16Z
End Jul 23 04Z
ATCF IDs
Track status Best track data.

Storm track plot

Map of storm track

Intensity plots

No Intensity information for this storm


Radial wind information

No radial wind information for this storm


Position and Intensity Table

BASIN ISO_TIME_________ NATURE LAT LON
degrees north degrees east
WP 1899-07-14 16:00:00 NR 18.80 137.40
WP 18:00:00 NR 19.20 135.86
WP 21:00:00 NR 19.75 133.65
WP 1899-07-15 00:00:00 NR 20.20 131.72
WP 03:00:00 NR 20.53 130.25
WP 04:00:00 NR 20.60 129.90
WP 06:00:00 NR 20.70 129.42
WP 09:00:00 NR 20.74 129.14
WP 12:00:00 NR 20.73 129.20
WP 15:00:00 NR 20.70 129.36
WP 16:00:00 NR 20.70 129.40
WP 18:00:00 NR 20.75 129.29
WP 21:00:00 NR 20.84 129.11
WP 1899-07-16 00:00:00 NR 20.95 128.93
WP 03:00:00 NR 21.06 128.75
WP 04:00:00 NR 21.10 128.70
WP 06:00:00 NR 21.17 128.61
WP 09:00:00 NR 21.28 128.48
WP 12:00:00 NR 21.38 128.36
WP 15:00:00 NR 21.47 128.24
WP 16:00:00 NR 21.50 128.20
WP 18:00:00 NR 21.54 128.11
WP 21:00:00 NR 21.58 127.96
WP 1899-07-17 00:00:00 NR 21.62 127.81
WP 03:00:00 NR 21.68 127.65
WP 04:00:00 NR 21.70 127.60
WP 06:00:00 NR 21.77 127.48
WP 09:00:00 NR 21.88 127.30
WP 12:00:00 NR 22.02 127.12
WP 15:00:00 NR 22.15 126.95
WP 16:00:00 NR 22.20 126.90
WP 18:00:00 NR 22.28 126.81
WP 21:00:00 NR 22.39 126.70
WP 1899-07-18 00:00:00 NR 22.51 126.58
WP 03:00:00 NR 22.65 126.45
WP 04:00:00 NR 22.70 126.40
WP 06:00:00 NR 22.81 126.28
WP 09:00:00 NR 22.99 126.09
WP 12:00:00 NR 23.19 125.88
WP 15:00:00 NR 23.42 125.67
WP 16:00:00 NR 23.50 125.60
WP 18:00:00 NR 23.64 125.48
WP 21:00:00 NR 23.86 125.29
WP 1899-07-19 00:00:00 NR 24.13 125.10
WP 03:00:00 NR 24.47 124.88
WP 04:00:00 NR 24.60 124.80
WP 06:00:00 NR 24.90 124.61
WP 09:00:00 NR 25.43 124.31
WP 12:00:00 NR 26.01 123.99
WP 15:00:00 NR 26.60 123.69
WP 16:00:00 NR 26.80 123.60
WP 18:00:00 NR 27.20 123.43
WP 21:00:00 NR 27.80 123.20
WP 1899-07-20 00:00:00 NR 28.36 123.01
WP 03:00:00 NR 28.86 122.85
WP 04:00:00 NR 29.00 122.80
WP 06:00:00 NR 29.24 122.70
WP 09:00:00 NR 29.53 122.57
WP 12:00:00 NR 29.76 122.50
WP 15:00:00 NR 29.94 122.49
WP 16:00:00 NR 30.00 122.50
WP 18:00:00 NR 30.16 122.55
WP 21:00:00 NR 30.38 122.69
WP 1899-07-21 00:00:00 NR 30.56 122.87
WP 03:00:00 NR 30.68 123.05
WP 04:00:00 NR 30.70 123.10
WP 06:00:00 NR 30.71 123.18
WP 09:00:00 NR 30.65 123.30
WP 12:00:00 NR 30.55 123.39
WP 15:00:00 NR 30.44 123.48
WP 16:00:00 NR 30.40 123.50
WP 18:00:00 NR 30.35 123.52
WP 21:00:00 NR 30.28 123.53
WP 1899-07-22 00:00:00 NR 30.21 123.56
WP 03:00:00 NR 30.13 123.65
WP 04:00:00 NR 30.10 123.70
WP 06:00:00 NR 30.03 123.84
WP 09:00:00 NR 29.92 124.11
WP 12:00:00 NR 29.82 124.44
WP 15:00:00 NR 29.72 124.78
WP 16:00:00 NR 29.70 124.90
WP 18:00:00 NR 29.66 125.13
WP 21:00:00 NR 29.63 125.46
WP 1899-07-23 00:00:00 NR 29.61 125.78
WP 03:00:00 NR 29.60 126.09
WP 04:00:00 NR 29.60 126.20

Source Information

Agency Information
USA
TOKYO
CMA
HKO
NEWDELHI
REUNION
BOM
NADI
WELLINGTON
DS824
TD9636 cons_worldwide_trop_cyclone_18710101-19891231-003:Line=1974
TD9635
NEUMANN
MLC

All available IBTrACS Data

SEASON BASIN SUBBASIN ISO_TIME_________ NATURE LAT LON DIST2LAND LANDFALL IFLAG USA SSHS TD9636 LAT TD9636 LON TD9636 STAGE STORM SPEED STORM DIR
Year degrees north degrees east km km 1 degrees north degrees east kts degrees
1899 WP MM 1899-07-14 16:00:00 NR 18.80 137.40 1473 1360 __________O___ -1 18.80 137.40 7 45 285
1899 WP MM 18:00:00 NR 19.20 135.86 1360 1180 __________P___ -1 19.20 135.86 7 44 285
1899 WP MM 21:00:00 NR 19.75 133.65 1180 1006 __________P___ -1 19.75 133.65 7 40 284
1899 WP MM 1899-07-15 00:00:00 NR 20.20 131.72 1006 870 __________P___ -1 20.20 131.72 7 33 284
1899 WP MM 03:00:00 NR 20.53 130.25 870 843 __________P___ -1 20.53 130.25 7 26 283
1899 WP MM 04:00:00 NR 20.60 129.90 833 787 __________O___ -1 20.60 129.90 3 16 282
1899 WP MM 06:00:00 NR 20.70 129.42 787 757 __________P___ -1 20.70 129.42 3 9 281
1899 WP MM 09:00:00 NR 20.74 129.14 757 757 __________P___ -1 20.74 129.14 3 2 278
1899 WP MM 12:00:00 NR 20.73 129.20 767 767 __________P___ -1 20.73 129.20 3 2 102
1899 WP MM 15:00:00 NR 20.70 129.36 787 787 __________P___ -1 20.70 129.36 3 3 98
1899 WP MM 16:00:00 NR 20.70 129.40 787 777 __________O___ -1 20.70 129.40 4 2 304
1899 WP MM 18:00:00 NR 20.75 129.29 777 761 __________P___ -1 20.75 129.29 4 4 298
1899 WP MM 21:00:00 NR 20.84 129.11 761 745 __________P___ -1 20.84 129.11 4 4 301
1899 WP MM 1899-07-16 00:00:00 NR 20.95 128.93 749 739 __________P___ -1 20.95 128.93 4 4 303
1899 WP MM 03:00:00 NR 21.06 128.75 744 734 __________P___ -1 21.06 128.75 4 4 305
1899 WP MM 04:00:00 NR 21.10 128.70 734 725 __________O___ -1 21.10 128.70 4 4 308
1899 WP MM 06:00:00 NR 21.17 128.61 729 720 __________P___ -1 21.17 128.61 4 3 312
1899 WP MM 09:00:00 NR 21.28 128.48 724 715 __________P___ -1 21.28 128.48 4 3 313
1899 WP MM 12:00:00 NR 21.38 128.36 720 707 __________P___ -1 21.38 128.36 4 3 311
1899 WP MM 15:00:00 NR 21.47 128.24 707 707 __________P___ -1 21.47 128.24 4 3 307
1899 WP MM 16:00:00 NR 21.50 128.20 707 698 __________O___ -1 21.50 128.20 4 3 296
1899 WP MM 18:00:00 NR 21.54 128.11 698 694 __________P___ -1 21.54 128.11 4 3 290
1899 WP MM 21:00:00 NR 21.58 127.96 694 676 __________P___ -1 21.58 127.96 4 3 287
1899 WP MM 1899-07-17 00:00:00 NR 21.62 127.81 676 666 __________P___ -1 21.62 127.81 4 3 288
1899 WP MM 03:00:00 NR 21.68 127.65 666 656 __________P___ -1 21.68 127.65 4 3 292
1899 WP MM 04:00:00 NR 21.70 127.60 656 643 __________O___ -1 21.70 127.60 4 4 300
1899 WP MM 06:00:00 NR 21.77 127.48 643 620 __________P___ -1 21.77 127.48 4 4 304
1899 WP MM 09:00:00 NR 21.88 127.30 620 597 __________P___ -1 21.88 127.30 4 4 307
1899 WP MM 12:00:00 NR 22.02 127.12 597 580 __________P___ -1 22.02 127.12 4 4 310
1899 WP MM 15:00:00 NR 22.15 126.95 580 571 __________P___ -1 22.15 126.95 4 4 312
1899 WP MM 16:00:00 NR 22.20 126.90 571 556 __________O___ -1 22.20 126.90 4 4 313
1899 WP MM 18:00:00 NR 22.28 126.81 556 542 __________P___ -1 22.28 126.81 4 3 315
1899 WP MM 21:00:00 NR 22.39 126.70 542 528 __________P___ -1 22.39 126.70 4 3 317
1899 WP MM 1899-07-18 00:00:00 NR 22.51 126.58 528 505 __________P___ -1 22.51 126.58 4 3 319
1899 WP MM 03:00:00 NR 22.65 126.45 505 500 __________P___ -1 22.65 126.45 4 4 320
1899 WP MM 04:00:00 NR 22.70 126.40 500 486 __________O___ -1 22.70 126.40 4 4 317
1899 WP MM 06:00:00 NR 22.81 126.28 486 458 __________P___ -1 22.81 126.28 4 5 315
1899 WP MM 09:00:00 NR 22.99 126.09 458 431 __________P___ -1 22.99 126.09 4 5 316
1899 WP MM 12:00:00 NR 23.19 125.88 431 405 __________P___ -1 23.19 125.88 4 6 318
1899 WP MM 15:00:00 NR 23.42 125.67 405 391 __________P___ -1 23.42 125.67 4 6 320
1899 WP MM 16:00:00 NR 23.50 125.60 391 378 __________O___ -1 23.50 125.60 4 6 321
1899 WP MM 18:00:00 NR 23.64 125.48 378 351 __________P___ -1 23.64 125.48 4 6 322
1899 WP MM 21:00:00 NR 23.86 125.29 351 327 __________P___ -1 23.86 125.29 4 6 325
1899 WP MM 1899-07-19 00:00:00 NR 24.13 125.10 327 297 __________P___ -1 24.13 125.10 4 7 328
1899 WP MM 03:00:00 NR 24.47 124.88 297 285 __________P___ -1 24.47 124.88 4 8 330
1899 WP MM 04:00:00 NR 24.60 124.80 285 262 __________O___ -1 24.60 124.80 4 10 331
1899 WP MM 06:00:00 NR 24.90 124.61 262 235 __________P___ -1 24.90 124.61 4 11 332
1899 WP MM 09:00:00 NR 25.43 124.31 235 224 __________P___ -1 25.43 124.31 4 12 333
1899 WP MM 12:00:00 NR 26.01 123.99 229 226 __________P___ -1 26.01 123.99 4 13 335
1899 WP MM 15:00:00 NR 26.60 123.69 246 246 __________P___ -1 26.60 123.69 4 13 336
1899 WP MM 16:00:00 NR 26.80 123.60 256 215 __________O___ -1 26.80 123.60 4 13 338
1899 WP MM 18:00:00 NR 27.20 123.43 215 166 __________P___ -1 27.20 123.43 4 13 340
1899 WP MM 21:00:00 NR 27.80 123.20 166 131 __________P___ -1 27.80 123.20 4 12 342
1899 WP MM 1899-07-20 00:00:00 NR 28.36 123.01 131 84 __________P___ -1 28.36 123.01 4 11 344
1899 WP MM 03:00:00 NR 28.86 122.85 84 80 __________P___ -1 28.86 122.85 4 10 344
1899 WP MM 04:00:00 NR 29.00 122.80 80 67 __________O___ -1 29.00 122.80 4 8 341
1899 WP MM 06:00:00 NR 29.24 122.70 67 62 __________P___ -1 29.24 122.70 4 7 339
1899 WP MM 09:00:00 NR 29.53 122.57 67 57 __________P___ -1 29.53 122.57 4 5 341
1899 WP MM 12:00:00 NR 29.76 122.50 57 57 __________P___ -1 29.76 122.50 4 4 349
1899 WP MM 15:00:00 NR 29.94 122.49 58 61 __________P___ -1 29.94 122.49 4 4 0
1899 WP MM 16:00:00 NR 30.00 122.50 61 61 __________O___ -1 30.00 122.50 4 5 16
1899 WP MM 18:00:00 NR 30.16 122.55 80 80 __________P___ -1 30.16 122.55 4 5 23
1899 WP MM 21:00:00 NR 30.38 122.69 94 94 __________P___ -1 30.38 122.69 4 5 34
1899 WP MM 1899-07-21 00:00:00 NR 30.56 122.87 101 101 __________P___ -1 30.56 122.87 4 4 46
1899 WP MM 03:00:00 NR 30.68 123.05 107 116 __________P___ -1 30.68 123.05 4 4 56
1899 WP MM 04:00:00 NR 30.70 123.10 116 116 __________O___ -1 30.70 123.10 4 2 77
1899 WP MM 06:00:00 NR 30.71 123.18 125 125 __________P___ -1 30.71 123.18 4 2 105
1899 WP MM 09:00:00 NR 30.65 123.30 135 135 __________P___ -1 30.65 123.30 4 2 130
1899 WP MM 12:00:00 NR 30.55 123.39 146 149 __________P___ -1 30.55 123.39 4 3 145
1899 WP MM 15:00:00 NR 30.44 123.48 162 162 __________P___ -1 30.44 123.48 4 3 151
1899 WP MM 16:00:00 NR 30.40 123.50 162 162 __________O___ -1 30.40 123.50 4 2 151
1899 WP MM 18:00:00 NR 30.35 123.52 162 163 __________P___ -1 30.35 123.52 4 1 162
1899 WP MM 21:00:00 NR 30.28 123.53 163 160 __________P___ -1 30.28 123.53 4 2 168
1899 WP MM 1899-07-22 00:00:00 NR 30.21 123.56 169 166 __________P___ -1 30.21 123.56 4 2 146
1899 WP MM 03:00:00 NR 30.13 123.65 176 176 __________P___ -1 30.13 123.65 4 2 133
1899 WP MM 04:00:00 NR 30.10 123.70 176 176 __________O___ -1 30.10 123.70 4 4 121
1899 WP MM 06:00:00 NR 30.03 123.84 184 193 __________P___ -1 30.03 123.84 4 5 116
1899 WP MM 09:00:00 NR 29.92 124.11 212 212 __________P___ -1 29.92 124.11 4 6 113
1899 WP MM 12:00:00 NR 29.82 124.44 240 250 __________P___ -1 29.82 124.44 4 6 109
1899 WP MM 15:00:00 NR 29.72 124.78 276 276 __________P___ -1 29.72 124.78 4 6 106
1899 WP MM 16:00:00 NR 29.70 124.90 285 285 __________O___ -1 29.70 124.90 4 6 102
1899 WP MM 18:00:00 NR 29.66 125.13 304 304 __________P___ -1 29.66 125.13 4 6 99
1899 WP MM 21:00:00 NR 29.63 125.46 341 341 __________P___ -1 29.63 125.46 4 6 95
1899 WP MM 1899-07-23 00:00:00 NR 29.61 125.78 370 370 __________P___ -1 29.61 125.78 4 6 92
1899 WP MM 03:00:00 NR 29.60 126.09 399 399 __________P___ -1 29.60 126.09 4 6 91
1899 WP MM 04:00:00 NR 29.60 126.20 401 __________O___ -1 29.60 126.20 4 5 91